createdAt,value
2017-12-06T17:01:10.511Z,97088
2017-12-06T17:03:40.087Z,97078
2017-12-06T17:06:08.804Z,97074
2017-12-06T17:08:43.755Z,97069
2017-12-06T17:11:18.539Z,97080
2017-12-06T17:13:47.231Z,97071
2017-12-06T17:16:15.912Z,97064
2017-12-06T17:18:50.843Z,97061
2017-12-06T17:21:25.775Z,97057
2017-12-06T17:23:54.470Z,97055
2017-12-06T17:26:23.142Z,97057
2017-12-06T17:29:15.815Z,97063
2017-12-06T17:31:46.923Z,97058
2017-12-06T17:34:21.795Z,97056
2017-12-06T17:36:50.470Z,97056
2017-12-06T17:39:26.106Z,97054
2017-12-06T17:42:01.011Z,97062
2017-12-06T17:44:30.591Z,97058
2017-12-06T17:46:59.306Z,97063
2017-12-06T17:49:27.971Z,97064
2017-12-06T17:51:56.659Z,97056
2017-12-06T17:54:25.327Z,97054
2017-12-06T17:57:00.100Z,97058
2017-12-06T17:59:30.621Z,97048
2017-12-06T18:01:59.307Z,97049
2017-12-06T18:04:27.983Z,97053
2017-12-06T18:06:56.835Z,97053
2017-12-06T18:09:25.498Z,97049
2017-12-06T18:11:54.177Z,97062
2017-12-06T18:14:24.810Z,97057
2017-12-06T18:16:59.918Z,97048
2017-12-06T18:19:28.608Z,97047
2017-12-06T18:22:03.755Z,97042
2017-12-06T18:24:33.630Z,97040
2017-12-06T18:27:03.010Z,97034
2017-12-06T18:29:32.181Z,97031
2017-12-06T18:32:01.025Z,97034
2017-12-06T18:34:30.659Z,97035
2017-12-06T18:37:00.587Z,97035
2017-12-06T18:39:40.318Z,97036
2017-12-06T18:42:15.247Z,97035
2017-12-06T18:44:43.935Z,97032
2017-12-06T18:47:18.795Z,97024
2017-12-06T18:49:53.599Z,97021
2017-12-06T18:52:23.206Z,97034
2017-12-06T18:54:51.931Z,97032
2017-12-06T18:57:21.367Z,97027
2017-12-06T18:59:59.776Z,97027
2017-12-06T19:02:34.734Z,97026
2017-12-06T19:05:09.539Z,97018
2017-12-06T19:07:44.755Z,97042
2017-12-06T19:10:20.455Z,97009
2017-12-06T19:12:49.138Z,97019
2017-12-06T19:15:19.447Z,97006
2017-12-06T19:17:54.322Z,97000
2017-12-06T19:20:29.222Z,97009
2017-12-06T19:22:57.976Z,97000
2017-12-06T19:25:32.802Z,97004
2017-12-06T19:28:07.710Z,97006
2017-12-06T19:30:40.552Z,97000
2017-12-06T19:33:09.320Z,96991
2017-12-06T19:35:44.566Z,96997
2017-12-06T19:38:19.427Z,96991
2017-12-06T19:40:48.971Z,96992
2017-12-06T19:43:23.915Z,96993
2017-12-06T19:45:52.595Z,96990
2017-12-06T19:48:27.572Z,96981
2017-12-06T19:50:57.170Z,96981
2017-12-06T19:53:32.083Z,96978
2017-12-06T19:56:00.806Z,96978
2017-12-06T19:58:29.489Z,96968
2017-12-06T20:01:04.411Z,96977
2017-12-06T20:03:33.091Z,96978
2017-12-06T20:06:04.343Z,96975
2017-12-06T20:08:33.843Z,96970
2017-12-06T20:11:02.539Z,96970
2017-12-06T20:13:37.392Z,96965
2017-12-06T20:16:06.083Z,96956
2017-12-06T20:18:35.563Z,96955
2017-12-06T20:21:04.244Z,96953
2017-12-06T20:23:39.259Z,96962
2017-12-06T20:26:07.927Z,96960
2017-12-06T20:28:42.918Z,96955
2017-12-06T20:31:12.463Z,96949
2017-12-06T20:33:48.078Z,96952
2017-12-06T20:36:17.548Z,96954
2017-12-06T20:38:46.400Z,96960
2017-12-06T20:41:21.307Z,96952
2017-12-06T20:43:50.930Z,96952
2017-12-06T20:46:20.531Z,96949
2017-12-06T20:48:50.991Z,96948
2017-12-06T20:51:26.017Z,96951
2017-12-06T20:53:54.894Z,96951
2017-12-06T20:56:24.797Z,96947
2017-12-06T20:58:54.249Z,96947
2017-12-06T21:01:29.190Z,96944
2017-12-06T21:04:04.002Z,96948
2017-12-06T21:06:39.743Z,96945
2017-12-06T21:09:14.751Z,96942
2017-12-06T21:11:57.172Z,96932
2017-12-06T21:14:26.827Z,96931
2017-12-06T21:17:02.943Z,96929
2017-12-06T21:19:37.876Z,96934
2017-12-06T21:22:07.462Z,96926
2017-12-06T21:24:42.511Z,96924
2017-12-06T21:27:11.895Z,96922
2017-12-06T21:29:47.270Z,96914
2017-12-06T21:32:22.375Z,96925
2017-12-06T21:34:51.975Z,96922
2017-12-06T21:37:21.479Z,96921
2017-12-06T21:39:56.403Z,96922
2017-12-06T21:42:31.444Z,96911
2017-12-06T21:45:00.219Z,96918
2017-12-06T21:47:37.067Z,96913
2017-12-06T21:50:06.610Z,96914
2017-12-06T21:52:36.411Z,96912
2017-12-06T21:55:11.478Z,96941
2017-12-06T21:57:40.156Z,96903
2017-12-06T22:00:08.851Z,96902
2017-12-06T22:02:37.594Z,96820
2017-12-06T22:05:12.678Z,96892
2017-12-06T22:07:47.447Z,96895
2017-12-06T22:10:16.151Z,96896
2017-12-06T22:12:48.591Z,96890
2017-12-06T22:15:23.458Z,96889
2017-12-06T22:17:52.903Z,96893
2017-12-06T22:20:21.599Z,96884
2017-12-06T22:22:50.275Z,96883
2017-12-06T22:25:25.879Z,96881
2017-12-06T22:28:00.639Z,96881
2017-12-06T22:30:35.611Z,96870
2017-12-06T22:33:04.311Z,96873
2017-12-06T22:35:39.302Z,96867
2017-12-06T22:38:07.993Z,96862
2017-12-06T22:40:42.922Z,96861
2017-12-06T22:43:11.643Z,96863
2017-12-06T22:45:42.315Z,96858
2017-12-06T22:48:11.004Z,96854
2017-12-06T22:50:40.443Z,96858
2017-12-06T22:53:15.251Z,96854
2017-12-06T22:55:50.194Z,96851
2017-12-06T22:58:18.898Z,96839
2017-12-06T23:00:47.575Z,96843
2017-12-06T23:03:16.251Z,96832
2017-12-06T23:05:44.939Z,96835
2017-12-06T23:08:13.623Z,96835
2017-12-06T23:10:43.314Z,96836
2017-12-06T23:13:18.266Z,96833
2017-12-06T23:15:56.500Z,96822
2017-12-06T23:18:25.171Z,96814
2017-12-06T23:20:53.925Z,96817
2017-12-06T23:23:22.615Z,96824
2017-12-06T23:25:57.558Z,96823
2017-12-06T23:28:26.243Z,96825
2017-12-06T23:31:01.835Z,96813
2017-12-06T23:33:30.514Z,96804
2017-12-06T23:36:02.683Z,96796
2017-12-06T23:38:31.359Z,96801
2017-12-06T23:41:00.035Z,96799
2017-12-06T23:43:28.723Z,96800
2017-12-06T23:46:03.642Z,96797
2017-12-06T23:48:33.186Z,96801
2017-12-06T23:51:01.858Z,96798
2017-12-06T23:53:36.827Z,96785
2017-12-06T23:56:06.296Z,96778
2017-12-06T23:58:34.982Z,96778
